createdAt,value
2023-02-11T00:01:45.003Z,27.92
2023-02-11T00:03:53.889Z,28.25
2023-02-11T00:05:59.528Z,28.13
2023-02-11T00:08:01.063Z,29.42
2023-02-11T00:10:04.342Z,28.50
2023-02-11T00:12:06.166Z,30.65
2023-02-11T00:14:10.292Z,28.77
2023-02-11T00:16:15.505Z,30.52
2023-02-11T00:18:17.482Z,29.83
2023-02-11T00:20:19.303Z,28.35
2023-02-11T00:22:21.202Z,28.10
2023-02-11T00:24:22.786Z,29.23
2023-02-11T00:26:27.951Z,28.70
2023-02-11T00:28:29.894Z,28.08
2023-02-11T00:30:31.654Z,25.90
2023-02-11T00:32:33.225Z,28.05
2023-02-11T00:34:35.300Z,27.75
2023-02-11T00:36:36.857Z,27.33
2023-02-11T00:38:38.463Z,27.98
2023-02-11T00:40:43.160Z,27.27
2023-02-11T00:42:46.276Z,28.77
2023-02-11T00:44:47.835Z,28.88
2023-02-11T00:46:49.397Z,27.20
2023-02-11T00:48:51.367Z,27.88
2023-02-11T00:50:54.151Z,27.10
2023-02-11T00:52:55.712Z,27.23
2023-02-11T00:54:57.457Z,28.73
2023-02-11T00:56:59.107Z,30.55
2023-02-11T00:59:02.069Z,27.50
2023-02-11T01:01:04.387Z,27.73
2023-02-11T01:03:06.260Z,28.13
2023-02-11T01:05:08.418Z,29.63
2023-02-11T01:07:10.088Z,27.80
2023-02-11T01:09:11.730Z,27.85
2023-02-11T01:11:16.713Z,27.77
2023-02-11T01:13:18.318Z,27.00
2023-02-11T01:15:22.083Z,28.25
2023-02-11T01:17:23.921Z,30.33
2023-02-11T01:19:25.539Z,28.50
2023-02-11T01:21:27.293Z,28.42
2023-02-11T01:23:29.021Z,29.05
2023-02-11T01:25:30.635Z,27.35
2023-02-11T01:27:32.552Z,28.70
2023-02-11T01:29:34.239Z,28.42
2023-02-11T01:31:37.336Z,30.65
2023-02-11T01:33:39.431Z,26.90
2023-02-11T01:35:41.628Z,29.60
2023-02-11T01:37:43.290Z,28.20
2023-02-11T01:39:44.926Z,29.25
2023-02-11T01:41:46.580Z,28.58
2023-02-11T01:43:49.921Z,29.95
2023-02-11T01:46:02.567Z,29.15
2023-02-11T01:48:05.774Z,29.45
2023-02-11T01:50:07.460Z,29.77
2023-02-11T01:52:14.657Z,30.45
2023-02-11T01:54:21.994Z,28.98
2023-02-11T01:56:25.746Z,29.80
2023-02-11T01:58:29.363Z,28.02
2023-02-11T02:00:35.010Z,29.83
2023-02-11T02:02:42.904Z,27.95
2023-02-11T02:04:52.928Z,28.38
2023-02-11T02:06:59.969Z,26.88
2023-02-11T02:09:05.454Z,27.38
2023-02-11T02:11:10.818Z,27.95
2023-02-11T02:13:15.614Z,28.70
2023-02-11T02:15:27.101Z,27.35
2023-02-11T02:17:40.678Z,28.38
2023-02-11T02:20:15.648Z,27.55
2023-02-11T02:22:58.790Z,27.40
2023-02-11T02:25:15.606Z,27.08
2023-02-11T02:27:32.901Z,29.88
2023-02-11T02:30:07.516Z,29.15
2023-02-11T02:32:47.678Z,28.75
2023-02-11T02:34:55.999Z,27.10
2023-02-11T02:37:08.102Z,30.13
2023-02-11T02:39:14.492Z,27.92
2023-02-11T02:41:21.056Z,27.95
2023-02-11T02:43:24.157Z,30.30
2023-02-11T02:45:25.701Z,28.10
2023-02-11T02:47:27.400Z,28.98
2023-02-11T02:49:31.690Z,28.63
2023-02-11T02:52:08.570Z,31.73
2023-02-11T02:54:33.540Z,27.52
2023-02-11T02:56:45.340Z,29.70
2023-02-11T02:58:56.875Z,27.38
2023-02-11T03:01:08.333Z,27.90
2023-02-11T03:03:18.991Z,28.23
2023-02-11T03:05:29.081Z,26.90
2023-02-11T03:07:40.009Z,30.42
2023-02-11T03:09:48.911Z,29.25
2023-02-11T03:11:50.532Z,28.00
2023-02-11T03:13:54.549Z,30.27
2023-02-11T03:15:58.655Z,31.00
2023-02-11T03:18:03.141Z,29.88
2023-02-11T03:20:06.952Z,28.95
2023-02-11T03:22:13.598Z,30.20
2023-02-11T03:24:20.710Z,29.42
2023-02-11T03:26:28.199Z,31.15
2023-02-11T03:28:33.338Z,28.20
2023-02-11T03:30:40.478Z,29.90
2023-02-11T03:32:49.334Z,29.33
2023-02-11T03:34:56.519Z,30.50
2023-02-11T03:37:02.210Z,30.15
2023-02-11T03:39:06.258Z,28.67
2023-02-11T03:41:11.284Z,29.20
2023-02-11T03:43:17.490Z,29.05
2023-02-11T03:45:22.159Z,30.95
2023-02-11T03:47:27.834Z,28.98
2023-02-11T03:49:32.567Z,27.80
2023-02-11T03:51:35.478Z,27.77
2023-02-11T03:53:40.626Z,33.08
2023-02-11T03:55:43.940Z,30.88
2023-02-11T03:57:47.414Z,28.58
2023-02-11T03:59:57.127Z,30.67
2023-02-11T04:02:01.639Z,29.30
2023-02-11T04:04:03.511Z,30.85
2023-02-11T04:06:05.814Z,32.17
2023-02-11T04:08:08.221Z,32.88
2023-02-11T04:10:12.157Z,32.50
2023-02-11T04:12:13.790Z,33.10
2023-02-11T04:14:16.774Z,31.17
2023-02-11T04:16:18.451Z,32.40
2023-02-11T04:18:20.045Z,31.88
2023-02-11T04:20:21.656Z,31.77
2023-02-11T04:22:23.309Z,29.83
2023-02-11T04:24:25.042Z,29.40
2023-02-11T04:26:26.792Z,31.35
2023-02-11T04:28:28.423Z,30.02
2023-02-11T04:30:31.431Z,30.40
2023-02-11T04:32:32.983Z,31.90
2023-02-11T04:34:34.709Z,32.28
2023-02-11T04:36:36.233Z,33.13
2023-02-11T04:38:37.808Z,29.88
2023-02-11T04:40:39.486Z,30.38
2023-02-11T04:42:41.409Z,32.67
2023-02-11T04:44:43.054Z,31.83
2023-02-11T04:46:45.981Z,31.27
2023-02-11T04:48:47.536Z,32.00
2023-02-11T04:50:49.109Z,33.15
2023-02-11T04:52:50.700Z,29.90
2023-02-11T04:54:52.268Z,30.55
2023-02-11T04:56:53.869Z,31.60
2023-02-11T04:58:55.504Z,30.02
2023-02-11T05:01:05.966Z,33.17
2023-02-11T05:03:09.007Z,30.83
2023-02-11T05:05:10.564Z,30.55
2023-02-11T05:07:12.144Z,31.65
2023-02-11T05:09:14.143Z,30.92
2023-02-11T05:11:18.746Z,31.23
2023-02-11T05:13:20.317Z,32.65
2023-02-11T05:15:21.863Z,31.67
2023-02-11T05:17:23.597Z,30.42
2023-02-11T05:19:26.580Z,33.22
2023-02-11T05:21:28.372Z,32.00
2023-02-11T05:23:29.937Z,31.00
2023-02-11T05:25:31.515Z,31.67
2023-02-11T05:27:33.656Z,31.08
2023-02-11T05:29:35.543Z,31.70
2023-02-11T05:31:37.066Z,32.70
2023-02-11T05:33:38.620Z,30.85
2023-02-11T05:35:41.611Z,29.23
2023-02-11T05:37:43.483Z,32.15
2023-02-11T05:39:45.193Z,30.42
2023-02-11T05:41:46.755Z,29.02
2023-02-11T05:43:48.411Z,30.33
2023-02-11T05:45:50.491Z,29.83
2023-02-11T05:47:52.374Z,29.15
2023-02-11T05:49:54.074Z,31.38
2023-02-11T05:51:59.364Z,30.23
2023-02-11T05:54:01.073Z,28.42
2023-02-11T05:56:02.855Z,29.88
2023-02-11T05:58:06.220Z,28.67
2023-02-11T06:00:09.348Z,30.00
2023-02-11T06:02:11.176Z,30.02
2023-02-11T06:04:12.828Z,29.67
2023-02-11T06:06:14.434Z,30.60
2023-02-11T06:08:17.313Z,29.73
2023-02-11T06:10:19.993Z,29.70
2023-02-11T06:12:23.254Z,30.90
2023-02-11T06:14:24.845Z,29.17
2023-02-11T06:16:26.446Z,30.23
2023-02-11T06:18:28.526Z,30.40
2023-02-11T06:20:30.291Z,29.60
2023-02-11T06:22:31.854Z,29.60
2023-02-11T06:24:58.515Z,29.50
2023-02-11T06:26:56.479Z,28.58
2023-02-11T06:28:59.709Z,30.98
2023-02-11T06:31:05.439Z,29.30
2023-02-11T06:33:07.183Z,31.48
2023-02-11T06:35:11.646Z,28.80
2023-02-11T06:37:13.561Z,29.25
2023-02-11T06:39:15.134Z,28.98
2023-02-11T06:41:19.473Z,30.42
2023-02-11T06:43:21.074Z,29.20
2023-02-11T06:45:22.663Z,28.30
2023-02-11T06:47:24.247Z,29.50
2023-02-11T06:49:25.976Z,30.42
2023-02-11T06:51:27.542Z,30.58
2023-02-11T06:53:29.204Z,29.45
2023-02-11T06:55:30.926Z,31.05
2023-02-11T06:57:33.836Z,28.58
2023-02-11T06:59:35.502Z,30.20
2023-02-11T07:01:37.115Z,31.58
2023-02-11T07:03:40.478Z,28.70
2023-02-11T07:05:42.887Z,30.25
2023-02-11T07:07:44.426Z,28.73
2023-02-11T07:09:45.994Z,27.98
2023-02-11T07:11:47.921Z,29.50
2023-02-11T07:13:51.623Z,30.60
2023-02-11T07:15:53.439Z,27.65
2023-02-11T07:17:55.249Z,29.55
2023-02-11T07:19:56.879Z,29.50
2023-02-11T07:21:58.649Z,30.92
2023-02-11T07:24:00.321Z,30.13
2023-02-11T07:26:03.785Z,29.70
2023-02-11T07:28:05.613Z,29.83
2023-02-11T07:30:13.531Z,29.67
2023-02-11T07:32:15.187Z,31.65
2023-02-11T07:34:16.772Z,30.17
2023-02-11T07:36:18.420Z,26.95
2023-02-11T07:38:20.007Z,29.75
2023-02-11T07:40:21.645Z,27.95
2023-02-11T07:42:23.283Z,28.65
2023-02-11T07:44:24.789Z,28.10
2023-02-11T07:46:28.181Z,28.48
2023-02-11T07:48:30.067Z,28.65
2023-02-11T07:50:31.663Z,26.90
2023-02-11T07:52:33.225Z,30.15
2023-02-11T07:54:34.806Z,30.75
2023-02-11T07:56:36.302Z,28.17
2023-02-11T07:58:39.009Z,29.25
2023-02-11T08:00:40.645Z,26.95
2023-02-11T08:02:46.774Z,28.80
2023-02-11T08:04:48.395Z,29.42
2023-02-11T08:06:49.984Z,29.67
2023-02-11T08:08:51.930Z,29.98
2023-02-11T08:10:53.465Z,31.08
2023-02-11T08:12:55.143Z,30.13
2023-02-11T08:14:56.702Z,30.10
2023-02-11T08:16:58.510Z,30.33
2023-02-11T08:19:03.959Z,31.58
2023-02-11T08:21:10.269Z,30.85
2023-02-11T08:23:11.794Z,29.40
2023-02-11T08:25:13.477Z,30.58
2023-02-11T08:27:15.054Z,31.27
2023-02-11T08:29:19.589Z,30.73
2023-02-11T08:31:23.384Z,30.75
2023-02-11T08:33:25.072Z,31.75
2023-02-11T08:35:28.231Z,30.48
2023-02-11T08:37:32.038Z,29.27
2023-02-11T08:39:34.569Z,30.48
2023-02-11T08:41:36.081Z,31.45
2023-02-11T08:43:37.953Z,29.70
2023-02-11T08:45:39.572Z,30.27
2023-02-11T08:47:43.464Z,31.50
2023-02-11T08:49:45.014Z,30.00
2023-02-11T08:51:48.691Z,29.90
2023-02-11T08:53:51.309Z,30.90
2023-02-11T08:55:55.042Z,28.25
2023-02-11T08:57:56.630Z,30.23
2023-02-11T08:59:58.376Z,30.70
2023-02-11T09:02:00.048Z,29.08
2023-02-11T09:04:01.708Z,30.70
2023-02-11T09:06:05.465Z,26.92
2023-02-11T09:08:08.463Z,30.92
2023-02-11T09:10:10.269Z,30.13
2023-02-11T09:12:11.837Z,28.40
2023-02-11T09:14:17.422Z,29.88
2023-02-11T09:16:21.584Z,29.15
2023-02-11T09:18:23.352Z,30.00
2023-02-11T09:20:25.526Z,27.70
2023-02-11T09:22:27.203Z,29.90
2023-02-11T09:24:30.061Z,28.90
2023-02-11T09:26:33.758Z,29.88
2023-02-11T09:28:35.437Z,29.90
2023-02-11T09:30:37.933Z,30.70
2023-02-11T09:32:39.642Z,30.40
2023-02-11T09:34:41.331Z,27.55
2023-02-11T09:36:42.960Z,27.85
2023-02-11T09:38:45.824Z,31.38
2023-02-11T09:40:50.099Z,28.55
2023-02-11T09:43:01.773Z,30.92
2023-02-11T09:45:10.772Z,26.95
2023-02-11T09:47:24.097Z,29.90
2023-02-11T09:49:34.857Z,29.35
2023-02-11T09:51:42.357Z,30.55
2023-02-11T09:53:44.045Z,27.40
2023-02-11T09:55:49.592Z,28.05
2023-02-11T09:57:51.436Z,27.60
2023-02-11T09:59:52.997Z,28.08
2023-02-11T10:01:58.790Z,28.63
2023-02-11T10:04:08.611Z,28.35
2023-02-11T10:06:25.410Z,28.10
2023-02-11T10:08:38.442Z,28.50
2023-02-11T10:10:47.689Z,29.50
2023-02-11T10:13:13.643Z,27.85
2023-02-11T10:15:24.129Z,27.48
2023-02-11T10:17:35.785Z,28.92
2023-02-11T10:20:01.474Z,27.50
2023-02-11T10:22:09.979Z,26.38
2023-02-11T10:24:14.578Z,26.10
2023-02-11T10:26:18.050Z,27.27
2023-02-11T10:28:23.382Z,27.33
2023-02-11T10:30:30.904Z,25.95
2023-02-11T10:32:39.226Z,27.80
2023-02-11T10:34:41.807Z,29.13
2023-02-11T10:36:44.868Z,29.35
2023-02-11T10:38:46.536Z,27.92
2023-02-11T10:40:48.306Z,27.85
2023-02-11T10:42:55.499Z,27.65
2023-02-11T10:45:02.416Z,27.17
2023-02-11T10:47:09.515Z,27.45
2023-02-11T10:49:35.151Z,29.70
2023-02-11T10:51:36.797Z,26.83
2023-02-11T10:53:38.854Z,25.70
2023-02-11T10:55:50.253Z,27.15
2023-02-11T10:57:57.753Z,26.55
2023-02-11T11:00:06.146Z,25.02
2023-02-11T11:02:23.390Z,26.90
2023-02-11T11:04:35.308Z,28.05
2023-02-11T11:06:36.939Z,26.15
2023-02-11T11:08:41.806Z,27.27
2023-02-11T11:10:45.956Z,25.25
2023-02-11T11:12:48.804Z,26.38
2023-02-11T11:14:54.645Z,26.95
2023-02-11T11:16:57.531Z,26.98
2023-02-11T11:19:20.428Z,27.13
2023-02-11T11:21:24.265Z,25.88
2023-02-11T11:23:27.073Z,26.02
2023-02-11T11:25:30.214Z,26.88
2023-02-11T11:27:32.547Z,24.80
2023-02-11T11:29:38.588Z,28.10
2023-02-11T11:31:49.165Z,26.60
2023-02-11T11:33:56.088Z,26.37
2023-02-11T11:36:01.206Z,26.33
2023-02-11T11:38:04.940Z,27.23
2023-02-11T11:40:10.273Z,27.83
2023-02-11T11:42:26.272Z,28.20
2023-02-11T11:44:31.512Z,31.90
2023-02-11T11:46:35.866Z,28.13
2023-02-11T11:48:40.064Z,30.10
2023-02-11T11:50:47.180Z,30.77
2023-02-11T11:52:54.231Z,27.17
2023-02-11T11:55:01.923Z,27.50
2023-02-11T11:57:12.430Z,29.50
2023-02-11T11:59:14.377Z,26.70
2023-02-11T12:01:25.684Z,29.37
2023-02-11T12:04:13.990Z,30.13
2023-02-11T12:06:27.904Z,28.57
2023-02-11T12:08:42.669Z,26.97
2023-02-11T12:11:01.643Z,28.37
2023-02-11T12:13:16.195Z,26.27
2023-02-11T12:15:31.074Z,27.03
2023-02-11T12:17:49.700Z,28.30
2023-02-11T12:20:25.779Z,27.53
2023-02-11T12:22:39.686Z,26.73
2023-02-11T12:24:54.575Z,28.90
2023-02-11T12:27:01.237Z,27.67
2023-02-11T12:29:13.876Z,28.63
2023-02-11T12:31:27.837Z,29.60
2023-02-11T12:33:42.769Z,30.73
2023-02-11T12:35:56.450Z,28.40
2023-02-11T12:38:32.252Z,29.17
2023-02-11T12:40:43.621Z,26.80
2023-02-11T12:42:55.494Z,28.20
2023-02-11T12:45:12.300Z,29.73
2023-02-11T12:47:22.836Z,26.77
2023-02-11T12:49:38.134Z,26.10
2023-02-11T12:52:03.146Z,27.70
2023-02-11T12:54:20.315Z,26.73
2023-02-11T12:56:29.444Z,28.50
2023-02-11T12:58:44.892Z,28.53
2023-02-11T13:00:54.161Z,29.40
2023-02-11T13:03:02.673Z,26.80
2023-02-11T13:05:14.357Z,27.73
2023-02-11T13:07:23.550Z,27.40
2023-02-11T13:09:32.358Z,27.37
2023-02-11T13:11:38.603Z,27.27
2023-02-11T13:13:50.523Z,28.20
2023-02-11T13:15:56.077Z,30.05
2023-02-11T13:18:04.368Z,31.15
2023-02-11T13:20:18.090Z,28.40
2023-02-11T13:22:24.348Z,27.25
2023-02-11T13:24:36.890Z,27.90
2023-02-11T13:26:46.071Z,27.77
2023-02-11T13:28:54.495Z,28.90
2023-02-11T13:30:56.658Z,28.92
2023-02-11T13:33:20.935Z,25.95
2023-02-11T13:35:28.864Z,27.42
2023-02-11T13:37:36.136Z,27.33
2023-02-11T13:39:39.333Z,26.73
2023-02-11T13:41:41.930Z,26.30
2023-02-11T13:43:44.867Z,25.13
2023-02-11T13:45:48.428Z,27.33
2023-02-11T13:47:56.899Z,25.13
2023-02-11T13:50:01.447Z,28.20
2023-02-11T13:52:05.841Z,22.37
2023-02-11T13:54:17.334Z,21.83
2023-02-11T13:56:31.620Z,22.80
2023-02-11T13:58:38.055Z,22.25
2023-02-11T14:00:45.387Z,22.30
2023-02-11T14:03:24.019Z,22.65
2023-02-11T14:05:30.949Z,22.77
2023-02-11T14:07:33.791Z,22.60
2023-02-11T14:09:40.561Z,22.08
2023-02-11T14:11:47.264Z,22.13
2023-02-11T14:14:34.391Z,21.13
2023-02-11T14:17:11.254Z,21.63
2023-02-11T14:19:31.253Z,19.25
2023-02-11T14:21:36.387Z,27.20
2023-02-11T14:23:38.071Z,21.42
2023-02-11T14:25:43.569Z,21.52
2023-02-11T14:27:55.281Z,21.67
2023-02-11T14:30:31.857Z,21.75
2023-02-11T14:32:42.593Z,23.80
2023-02-11T14:34:55.697Z,21.00
2023-02-11T14:37:14.565Z,19.17
2023-02-11T14:39:25.469Z,20.27
2023-02-11T14:41:29.594Z,20.35
2023-02-11T14:43:37.532Z,19.88
2023-02-11T14:45:39.615Z,19.47
2023-02-11T14:47:45.136Z,21.95
2023-02-11T14:49:49.301Z,20.97
2023-02-11T14:51:52.648Z,21.75
2023-02-11T14:53:58.515Z,23.07
2023-02-11T14:56:00.354Z,22.58
2023-02-11T14:58:06.737Z,20.33
2023-02-11T15:00:18.194Z,19.38
2023-02-11T15:02:25.573Z,22.33
2023-02-11T15:04:29.793Z,24.23
2023-02-11T15:06:36.547Z,21.75
2023-02-11T15:08:43.495Z,20.25
2023-02-11T15:10:45.542Z,18.83
2023-02-11T15:12:47.459Z,19.95
2023-02-11T15:14:50.976Z,20.90
2023-02-11T15:16:55.926Z,21.75
2023-02-11T15:19:02.264Z,21.55
2023-02-11T15:21:05.206Z,24.02
2023-02-11T15:23:17.584Z,20.63
2023-02-11T15:25:19.443Z,20.70
2023-02-11T15:27:21.119Z,21.75
2023-02-11T15:29:24.439Z,22.77
2023-02-11T15:31:27.931Z,25.48
2023-02-11T15:33:30.834Z,24.48
2023-02-11T15:35:34.495Z,22.33
2023-02-11T15:37:36.106Z,23.30
2023-02-11T15:39:41.017Z,22.23
2023-02-11T15:41:42.689Z,24.60
2023-02-11T15:43:46.807Z,25.70
2023-02-11T15:45:59.192Z,24.77
2023-02-11T15:48:06.833Z,27.80
2023-02-11T15:50:21.072Z,27.40
2023-02-11T15:52:26.292Z,29.05
2023-02-11T15:54:30.920Z,25.45
2023-02-11T15:56:38.552Z,23.30
2023-02-11T15:58:42.522Z,27.17
2023-02-11T16:00:47.399Z,23.58
2023-02-11T16:02:49.450Z,24.60
2023-02-11T16:04:54.328Z,25.50
2023-02-11T16:06:56.825Z,25.05
2023-02-11T16:09:01.086Z,24.00
2023-02-11T16:11:04.765Z,24.08
2023-02-11T16:13:20.015Z,26.80
2023-02-11T16:15:43.064Z,25.17
2023-02-11T16:17:44.804Z,27.20
2023-02-11T16:19:48.483Z,24.85
2023-02-11T16:21:50.939Z,26.98
2023-02-11T16:23:54.849Z,25.63
2023-02-11T16:26:03.497Z,26.90
2023-02-11T16:28:05.509Z,25.83
2023-02-11T16:30:26.461Z,28.40
2023-02-11T16:32:30.114Z,25.45
2023-02-11T16:34:31.758Z,32.60
2023-02-11T16:36:33.343Z,35.47
2023-02-11T16:38:35.391Z,32.88
2023-02-11T16:40:36.937Z,28.25
2023-02-11T16:42:38.600Z,29.08
2023-02-11T16:44:40.494Z,30.73
2023-02-11T16:46:43.931Z,28.42
2023-02-11T16:48:45.959Z,26.98
2023-02-11T16:50:51.500Z,32.65
2023-02-11T16:52:54.904Z,26.27
2023-02-11T16:54:56.558Z,25.92
2023-02-11T16:56:58.180Z,28.80
2023-02-11T16:58:59.846Z,28.20
2023-02-11T17:01:01.604Z,28.63
2023-02-11T17:03:07.732Z,30.35
2023-02-11T17:05:18.205Z,30.10
2023-02-11T17:07:19.924Z,31.75
2023-02-11T17:09:24.576Z,29.90
2023-02-11T17:11:26.546Z,29.33
2023-02-11T17:13:28.220Z,29.92
2023-02-11T17:15:29.894Z,31.30
2023-02-11T17:17:36.692Z,30.67
2023-02-11T17:19:40.133Z,29.30
2023-02-11T17:21:42.288Z,27.50
2023-02-11T17:23:43.858Z,28.95
2023-02-11T17:25:45.997Z,29.80
2023-02-11T17:27:47.623Z,30.08
2023-02-11T17:29:49.392Z,28.60
2023-02-11T17:31:52.608Z,30.33
2023-02-11T17:33:54.239Z,30.23
2023-02-11T17:35:57.210Z,30.38
2023-02-11T17:37:59.027Z,29.98
2023-02-11T17:40:00.643Z,33.15
2023-02-11T17:42:02.538Z,36.88
2023-02-11T17:44:04.676Z,41.75
2023-02-11T17:46:07.388Z,41.58
2023-02-11T17:48:08.973Z,39.47
2023-02-11T17:50:11.154Z,35.28
2023-02-11T17:52:14.212Z,38.10
2023-02-11T17:54:20.394Z,36.50
2023-02-11T17:56:22.076Z,34.90
2023-02-11T17:58:23.783Z,37.40
2023-02-11T18:00:25.773Z,35.50
2023-02-11T18:02:27.648Z,36.80
2023-02-11T18:04:29.959Z,39.00
2023-02-11T18:06:31.859Z,35.85
2023-02-11T18:08:38.395Z,36.13
2023-02-11T18:10:41.583Z,35.70
2023-02-11T18:12:43.236Z,33.53
2023-02-11T18:14:44.879Z,34.97
2023-02-11T18:16:50.264Z,36.80
2023-02-11T18:18:51.891Z,37.13
2023-02-11T18:20:57.595Z,41.25
2023-02-11T18:22:59.653Z,38.00
2023-02-11T18:25:02.658Z,35.63
2023-02-11T18:27:04.311Z,32.97
2023-02-11T18:29:06.094Z,36.75
2023-02-11T18:31:09.507Z,34.28
2023-02-11T18:33:11.447Z,32.53
2023-02-11T18:35:15.006Z,31.67
2023-02-11T18:37:16.781Z,33.10
2023-02-11T18:39:19.183Z,34.40
2023-02-11T18:41:22.285Z,39.38
2023-02-11T18:43:24.301Z,38.10
2023-02-11T18:45:26.047Z,36.75
2023-02-11T18:47:30.702Z,32.88
2023-02-11T18:49:33.256Z,30.00
2023-02-11T18:51:34.889Z,28.63
2023-02-11T18:53:37.179Z,29.75
2023-02-11T18:55:39.388Z,33.28
2023-02-11T18:57:42.456Z,34.60
2023-02-11T18:59:46.917Z,34.75
2023-02-11T19:01:48.502Z,35.42
2023-02-11T19:03:50.492Z,37.33
2023-02-11T19:05:52.582Z,33.90
2023-02-11T19:07:56.141Z,35.17
2023-02-11T19:09:57.885Z,30.50
2023-02-11T19:12:01.640Z,32.70
2023-02-11T19:14:09.286Z,31.73
2023-02-11T19:16:11.934Z,31.23
2023-02-11T19:18:15.062Z,30.42
2023-02-11T19:20:16.993Z,32.63
2023-02-11T19:22:21.521Z,39.90
2023-02-11T19:24:24.292Z,43.45
2023-02-11T19:26:27.036Z,48.63
2023-02-11T19:28:28.719Z,43.05
2023-02-11T19:30:32.050Z,42.03
2023-02-11T19:32:33.792Z,38.15
2023-02-11T19:34:37.210Z,32.30
2023-02-11T19:36:42.402Z,30.23
2023-02-11T19:38:45.092Z,28.02
2023-02-11T19:40:54.803Z,23.63
2023-02-11T19:42:56.868Z,27.55
2023-02-11T19:44:58.846Z,28.33
2023-02-11T19:47:02.189Z,26.45
2023-02-11T19:49:05.077Z,29.70
2023-02-11T19:51:13.082Z,29.13
2023-02-11T19:53:15.334Z,30.42
2023-02-11T19:55:17.329Z,28.33
2023-02-11T19:57:21.868Z,28.42
2023-02-11T19:59:23.922Z,31.58
2023-02-11T20:01:26.289Z,30.98
2023-02-11T20:03:29.453Z,34.67
2023-02-11T20:05:31.195Z,26.75
2023-02-11T20:07:32.823Z,26.45
2023-02-11T20:09:34.539Z,26.90
2023-02-11T20:11:40.749Z,27.50
2023-02-11T20:13:42.829Z,25.42
2023-02-11T20:15:46.567Z,28.10
2023-02-11T20:17:48.902Z,28.25
2023-02-11T20:19:52.160Z,28.20
2023-02-11T20:21:54.898Z,26.60
2023-02-11T20:23:57.156Z,26.73
2023-02-11T20:25:58.809Z,27.65
2023-02-11T20:28:00.523Z,24.67
2023-02-11T20:30:02.270Z,27.55
2023-02-11T20:32:04.840Z,25.60
2023-02-11T20:34:06.678Z,25.20
2023-02-11T20:36:12.613Z,25.92
2023-02-11T20:38:15.820Z,28.00
2023-02-11T20:40:18.029Z,25.85
2023-02-11T20:42:19.699Z,26.63
2023-02-11T20:44:23.304Z,33.75
2023-02-11T20:46:27.880Z,33.05
2023-02-11T20:48:30.366Z,31.10
2023-02-11T20:50:33.551Z,29.58
2023-02-11T20:52:36.549Z,31.23
2023-02-11T20:54:38.453Z,30.95
2023-02-11T20:56:40.198Z,27.88
2023-02-11T20:58:42.103Z,28.58
2023-02-11T21:00:43.887Z,29.50
2023-02-11T21:02:45.649Z,31.50
2023-02-11T21:04:47.309Z,32.75
2023-02-11T21:06:52.852Z,32.70
2023-02-11T21:08:55.894Z,35.55
2023-02-11T21:10:58.182Z,39.15
2023-02-11T21:13:00.159Z,40.40
2023-02-11T21:15:06.659Z,36.80
2023-02-11T21:17:08.458Z,36.30
2023-02-11T21:19:10.391Z,38.67
2023-02-11T21:21:12.196Z,31.17
2023-02-11T21:23:13.854Z,26.92
2023-02-11T21:25:17.308Z,28.55
2023-02-11T21:27:20.155Z,28.77
2023-02-11T21:29:22.210Z,31.10
2023-02-11T21:31:31.540Z,29.33
2023-02-11T21:33:33.467Z,29.40
2023-02-11T21:35:36.380Z,31.45
2023-02-11T21:37:38.266Z,35.28
2023-02-11T21:39:39.994Z,32.95
2023-02-11T21:41:43.121Z,30.80
2023-02-11T21:43:45.328Z,30.67
2023-02-11T21:45:49.670Z,28.90
2023-02-11T21:47:51.774Z,31.10
2023-02-11T21:49:53.498Z,30.48
2023-02-11T21:52:00.632Z,30.92
2023-02-11T21:54:02.718Z,32.95
2023-02-11T21:56:06.775Z,33.55
2023-02-11T21:58:12.209Z,35.83
2023-02-11T22:00:16.365Z,36.05
2023-02-11T22:02:18.258Z,39.05
2023-02-11T22:04:20.071Z,34.05
2023-02-11T22:06:23.863Z,33.22
2023-02-11T22:08:43.511Z,32.95
2023-02-11T22:10:45.173Z,31.55
2023-02-11T22:12:47.152Z,29.30
2023-02-11T22:14:50.482Z,29.98
2023-02-11T22:16:52.421Z,31.75
2023-02-11T22:18:56.006Z,32.65
2023-02-11T22:20:59.778Z,28.70
2023-02-11T22:23:01.478Z,30.90
2023-02-11T22:25:03.299Z,29.77
2023-02-11T22:27:05.635Z,27.58
2023-02-11T22:29:07.301Z,30.20
2023-02-11T22:31:12.397Z,30.55
2023-02-11T22:33:14.536Z,29.52
2023-02-11T22:35:16.239Z,27.73
2023-02-11T22:37:17.877Z,26.38
2023-02-11T22:39:19.910Z,25.90
2023-02-11T22:41:24.051Z,27.92
2023-02-11T22:43:27.192Z,28.45
2023-02-11T22:45:28.806Z,28.00
2023-02-11T22:47:31.856Z,29.05
2023-02-11T22:49:33.622Z,27.92
2023-02-11T22:51:36.455Z,25.73
2023-02-11T22:53:38.890Z,26.55
2023-02-11T22:55:40.542Z,25.40
2023-02-11T22:57:42.423Z,25.75
2023-02-11T22:59:44.310Z,26.88
2023-02-11T23:01:46.801Z,25.75
2023-02-11T23:03:55.560Z,25.58
2023-02-11T23:06:01.531Z,27.95
2023-02-11T23:08:03.406Z,29.08
2023-02-11T23:10:06.373Z,28.10
2023-02-11T23:12:08.890Z,27.83
2023-02-11T23:14:10.558Z,25.52
2023-02-11T23:16:14.956Z,28.17
2023-02-11T23:18:16.746Z,27.10
2023-02-11T23:20:20.761Z,28.80
2023-02-11T23:22:22.383Z,28.73
2023-02-11T23:24:26.817Z,28.90
2023-02-11T23:26:28.756Z,26.88
2023-02-11T23:28:30.802Z,31.02
2023-02-11T23:30:34.826Z,27.63
2023-02-11T23:32:38.414Z,29.27
2023-02-11T23:34:40.073Z,32.13
2023-02-11T23:36:43.196Z,32.83
2023-02-11T23:38:45.795Z,30.30
2023-02-11T23:40:47.457Z,31.20
2023-02-11T23:42:52.844Z,56.97
2023-02-11T23:44:54.460Z,54.88
2023-02-11T23:46:56.359Z,45.45
2023-02-11T23:48:58.622Z,35.25
2023-02-11T23:51:00.603Z,36.70
2023-02-11T23:53:03.705Z,33.35
2023-02-11T23:55:06.028Z,31.85
2023-02-11T23:57:07.933Z,31.95
2023-02-11T23:59:09.599Z,32.42
